Time;durP1;ratioP1;P1;durP2;ratioP2;P2;SDS_P1;SDS_P2;PMS_P1;PMS_P2;Temp;Humidity;BMP_temperature;BMP_pressure;BME280_temperature;BME280_humidity;BME280_pressure;Samples;Min_cycle;Max_cycle;Signal;HPM_P1;HPM_P2
2022/01/09 00:00:13;;;;;;;;;2.00;1.00;;;;;6.34;100.00;98761.16;5060254;28;10649;-71
2022/01/09 00:02:40;;;;;;;;;4.50;2.75;;;;;6.34;100.00;98769.22;5059589;28;10717;-69
2022/01/09 00:05:08;;;;;;;;;5.00;2.00;;;;;6.32;100.00;98760.56;5062047;28;10509;-69
2022/01/09 00:07:37;;;;;;;;;1.75;1.50;;;;;6.30;100.00;98770.69;5064407;28;10522;-70
2022/01/09 00:10:06;;;;;;;;;7.75;3.00;;;;;6.25;100.00;98765.97;5058338;28;10609;-70
2022/01/09 00:12:34;;;;;;;;;7.50;3.50;;;;;6.26;100.00;98772.97;5062316;28;10666;-72
2022/01/09 00:15:00;;;;;;;;;7.50;4.00;;;;;6.25;100.00;98786.63;5060849;28;10760;-70
2022/01/09 00:17:27;;;;;;;;;7.00;3.00;;;;;6.23;100.00;98794.91;5059641;28;11543;-70
2022/01/09 00:19:54;;;;;;;;;4.50;3.50;;;;;6.24;100.00;98795.72;5062478;28;11645;-72
2022/01/09 00:22:30;;;;;;;;;7.50;4.00;;;;;6.22;100.00;98801.31;5057395;28;11466;-69
2022/01/09 00:24:56;;;;;;;;;5.00;5.00;;;;;6.23;100.00;98805.66;5062144;28;10759;-71
2022/01/09 00:27:23;;;;;;;;;5.00;2.50;;;;;6.23;100.00;98808.34;5057261;28;10600;-70
2022/01/09 00:29:49;;;;;;;;;2.25;2.25;;;;;6.22;100.00;98811.25;5064410;28;10720;-69
2022/01/09 00:32:16;;;;;;;;;11.75;2.00;;;;;6.24;100.00;98819.91;5060916;28;10712;-73
2022/01/09 00:34:42;;;;;;;;;5.75;4.50;;;;;6.26;100.00;98820.53;5058474;28;10772;-69
2022/01/09 00:37:10;;;;;;;;;8.75;6.00;;;;;6.27;100.00;98832.91;5062454;28;10660;-69
2022/01/09 00:39:36;;;;;;;;;2.75;1.25;;;;;6.25;100.00;98827.75;5059546;28;10729;-69
2022/01/09 00:42:03;;;;;;;;;2.50;2.00;;;;;6.25;100.00;98830.44;5059143;28;10727;-70
2022/01/09 00:44:29;;;;;;;;;12.25;5.00;;;;;6.28;100.00;98832.72;5064040;28;10676;-71
2022/01/09 00:47:00;;;;;;;;;5.75;2.25;;;;;6.27;100.00;98828.38;5064690;28;10920;-70
2022/01/09 00:49:27;;;;;;;;;9.25;4.00;;;;;6.30;100.00;98832.50;5058485;28;10714;-69
2022/01/09 00:51:54;;;;;;;;;9.50;3.00;;;;;6.28;100.00;98845.31;5060085;28;10645;-69
2022/01/09 00:54:22;;;;;;;;;4.75;2.00;;;;;6.28;100.00;98851.53;5064213;28;10561;-70
2022/01/09 00:56:49;;;;;;;;;6.50;5.00;;;;;6.26;100.00;98853.59;5057191;28;10669;-70
2022/01/09 00:59:15;;;;;;;;;5.75;5.00;;;;;6.31;100.00;98863.72;5059574;28;10835;-70
2022/01/09 01:01:42;;;;;;;;;6.50;5.50;;;;;6.29;100.00;98868.47;5079027;28;11451;-70
2022/01/09 01:04:08;;;;;;;;;2.00;1.00;;;;;6.25;100.00;98878.81;5060005;28;10520;-69
2022/01/09 01:06:35;;;;;;;;;6.50;2.50;;;;;6.29;100.00;98885.41;5060368;28;10647;-71
2022/01/09 01:09:02;;;;;;;;;4.00;2.00;;;;;6.27;99.81;98890.16;5073276;28;10811;-70
2022/01/09 01:11:29;;;;;;;;;4.00;1.50;;;;;6.30;99.88;98897.00;5063787;28;10882;-70
2022/01/09 01:13:55;;;;;;;;;4.00;3.00;;;;;6.29;100.00;98895.34;5059104;28;10620;-72
2022/01/09 01:16:22;;;;;;;;;2.75;2.75;;;;;6.25;99.18;98903.00;5058919;28;10649;-69
2022/01/09 01:18:48;;;;;;;;;5.50;3.00;;;;;6.31;99.19;98906.69;5057309;28;10652;-69
2022/01/09 01:21:15;;;;;;;;;5.00;3.00;;;;;6.28;98.73;98907.94;5073416;28;10769;-68
2022/01/09 01:23:41;;;;;;;;;2.00;2.00;;;;;6.31;98.75;98906.69;5059249;28;11418;-69
2022/01/09 01:26:08;;;;;;;;;5.75;5.25;;;;;6.30;98.38;98921.16;5057969;28;10690;-71
2022/01/09 01:28:34;;;;;;;;;3.50;2.50;;;;;6.32;98.35;98936.06;5058471;28;10654;-70
2022/01/09 01:31:00;;;;;;;;;3.00;3.00;;;;;6.33;97.84;98924.25;5060790;28;10695;-69
2022/01/09 01:33:27;;;;;;;;;3.75;1.75;;;;;6.34;97.26;98938.53;5063398;28;10523;-69
2022/01/09 01:35:53;;;;;;;;;1.75;1.75;;;;;6.35;97.24;98938.31;5058100;28;10764;-70
2022/01/09 01:38:20;;;;;;;;;10.50;3.25;;;;;6.29;96.98;98944.53;5057453;28;10778;-68
2022/01/09 01:40:46;;;;;;;;;2.75;2.00;;;;;6.29;96.15;98943.72;5057175;28;10539;-70
2022/01/09 01:43:13;;;;;;;;;4.00;1.00;;;;;6.32;96.06;98954.03;5057563;28;10696;-69
2022/01/09 01:45:39;;;;;;;;;14.75;5.00;;;;;6.31;95.70;98974.72;5062151;28;10476;-69
2022/01/09 01:48:06;;;;;;;;;2.50;2.00;;;;;6.34;95.52;98976.16;5058273;28;10956;-69
2022/01/09 01:50:37;;;;;;;;;3.00;2.00;;;;;6.34;95.14;98982.34;5063292;28;10548;-69
2022/01/09 01:53:07;;;;;;;;;3.00;2.25;;;;;6.34;94.77;98971.59;5061827;28;10758;-69
2022/01/09 01:55:37;;;;;;;;;5.50;3.50;;;;;6.36;94.52;98996.41;5059523;28;10664;-70
2022/01/09 01:58:05;;;;;;;;;1.00;1.00;;;;;6.35;93.99;98989.38;5060443;28;10788;-70
2022/01/09 02:00:33;;;;;;;;;6.50;4.00;;;;;6.35;94.13;98994.75;5058167;28;10862;-68
2022/01/09 02:03:00;;;;;;;;;5.25;4.50;;;;;6.33;94.59;99001.38;5055272;28;10743;-68
2022/01/09 02:05:26;;;;;;;;;4.75;4.00;;;;;6.34;94.44;99008.41;5055684;28;10998;-68
2022/01/09 02:07:54;;;;;;;;;5.00;5.00;;;;;6.32;93.52;99007.78;5056341;28;10667;-70
2022/01/09 02:10:20;;;;;;;;;5.00;2.00;;;;;6.35;93.36;99021.63;5059324;28;10790;-69
2022/01/09 02:12:50;;;;;;;;;4.75;4.75;;;;;6.36;93.30;99009.84;5073067;28;10745;-69
2022/01/09 02:15:38;;;;;;;;;5.00;2.00;;;;;6.38;93.05;99013.16;5074636;28;10846;-69
2022/01/09 02:18:08;;;;;;;;;4.75;2.00;;;;;6.38;93.21;99031.97;5075998;28;10651;-69
2022/01/09 02:20:37;;;;;;;;;5.75;2.50;;;;;6.37;93.42;99010.66;5060290;28;10676;-69
2022/01/09 02:23:06;;;;;;;;;3.00;1.00;;;;;6.39;93.63;99032.78;5078368;28;11300;-70
2022/01/09 02:25:34;;;;;;;;;1.50;1.00;;;;;6.37;93.66;99032.16;5058243;28;10656;-69
2022/01/09 02:28:01;;;;;;;;;3.00;3.00;;;;;6.36;93.83;99042.09;5056566;28;10618;-69
2022/01/09 02:30:32;;;;;;;;;5.25;4.00;;;;;6.35;93.71;99040.44;5060472;28;10786;-69
2022/01/09 02:32:59;;;;;;;;;8.00;6.00;;;;;6.34;93.99;99040.66;5059650;28;10828;-69
2022/01/09 02:35:27;;;;;;;;;4.25;2.00;;;;;6.31;93.94;99052.63;5064020;28;10804;-69
2022/01/09 02:37:53;;;;;;;;;9.00;3.50;;;;;6.34;94.03;99065.66;5061068;28;10693;-69
2022/01/09 02:40:22;;;;;;;;;1.00;1.00;;;;;6.29;92.80;99057.41;5066923;28;10569;-72
2022/01/09 02:42:53;;;;;;;;;0.75;0.75;;;;;6.31;92.75;99078.69;5062252;28;11238;-69
2022/01/09 02:45:23;;;;;;;;;2.00;1.50;;;;;6.23;94.47;99093.16;5084138;28;10471;-69
2022/01/09 02:47:50;;;;;;;;;1.75;1.75;;;;;6.09;94.23;99075.34;5065337;28;10744;-72
2022/01/09 02:52:54;;;;;;;;;2.00;1.00;;;;;5.97;95.33;99101.16;5063012;28;10556;-69
2022/01/09 02:55:22;;;;;;;;;1.00;1.00;;;;;5.96;95.60;99100.31;5062634;28;10431;-69
2022/01/09 02:57:57;;;;;;;;;1.75;1.75;;;;;5.94;96.16;99107.72;5074791;28;10582;-69
2022/01/09 03:00:26;;;;;;;;;3.00;2.00;;;;;5.88;96.04;99108.50;5060098;28;10558;-69
2022/01/09 03:02:52;;;;;;;;;1.00;1.00;;;;;5.93;96.96;99113.31;5061437;28;10919;-69
2022/01/09 03:05:19;;;;;;;;;0.50;0.25;;;;;5.88;96.74;99120.09;5062094;28;10618;-69
2022/01/09 03:07:46;;;;;;;;;2.50;1.00;;;;;5.87;96.67;99122.97;5066692;28;11379;-69
2022/01/09 03:10:15;;;;;;;;;3.00;1.00;;;;;5.84;95.62;99129.56;5067908;28;10811;-70
2022/01/09 03:12:42;;;;;;;;;4.50;2.00;;;;;5.84;93.58;99134.13;5062548;28;10954;-68
2022/01/09 03:15:09;;;;;;;;;0.00;0.00;;;;;5.90;93.82;99145.94;5059885;28;10803;-69
2022/01/09 03:17:36;;;;;;;;;2.00;2.00;;;;;5.87;93.08;99147.13;5081553;28;10565;-69
2022/01/09 03:20:05;;;;;;;;;1.75;1.50;;;;;5.92;93.20;99157.31;5062757;28;10722;-69
2022/01/09 03:22:31;;;;;;;;;0.50;0.50;;;;;5.91;93.16;99163.72;5060301;28;10595;-70
2022/01/09 03:24:58;;;;;;;;;1.00;1.00;;;;;5.87;93.00;99158.72;5064624;28;10538;-69
2022/01/09 03:27:24;;;;;;;;;1.00;1.00;;;;;5.90;92.00;99170.94;5060651;28;10709;-69
2022/01/09 03:29:51;;;;;;;;;1.00;1.00;;;;;5.90;91.28;99162.06;5061247;28;10592;-69
2022/01/09 03:32:17;;;;;;;;;1.00;1.00;;;;;5.92;91.13;99181.47;5075781;28;10587;-70
2022/01/09 03:34:44;;;;;;;;;1.25;1.00;;;;;5.92;91.45;99178.78;5066204;28;10783;-72
2022/01/09 03:37:11;;;;;;;;;1.00;1.00;;;;;5.97;91.37;99187.09;5062241;28;10563;-72
2022/01/09 03:39:38;;;;;;;;;1.00;1.00;;;;;5.95;91.30;99198.03;5063166;28;10490;-70
2022/01/09 03:42:05;;;;;;;;;0.00;0.00;;;;;5.88;90.43;99203.34;5058462;28;10558;-69
2022/01/09 03:44:31;;;;;;;;;2.50;2.00;;;;;5.90;90.04;99197.78;5060177;28;10735;-69
2022/01/09 03:46:58;;;;;;;;;2.75;1.00;;;;;5.91;89.48;99190.56;5078726;28;10630;-72
2022/01/09 03:49:24;;;;;;;;;1.00;1.00;;;;;5.91;89.41;99206.69;5061545;28;10858;-70
2022/01/09 03:51:53;;;;;;;;;1.00;0.00;;;;;5.85;89.05;99214.47;5064469;28;10734;-70
2022/01/09 03:54:21;;;;;;;;;2.25;1.00;;;;;5.85;89.56;99214.47;5062642;28;10796;-69
2022/01/09 03:56:49;;;;;;;;;0.75;0.75;;;;;5.83;89.01;99215.72;5058569;28;10644;-72
2022/01/09 03:59:17;;;;;;;;;1.25;0.50;;;;;5.83;88.67;99218.38;5048804;28;11246;-69
2022/01/09 04:01:44;;;;;;;;;1.00;0.00;;;;;5.85;88.81;99219.03;5061367;28;10743;-68
2022/01/09 04:04:12;;;;;;;;;2.00;1.00;;;;;5.83;88.76;99213.84;5061776;28;11263;-69
2022/01/09 04:06:45;;;;;;;;;1.25;1.25;;;;;5.84;88.38;99230.78;5059400;28;10591;-70
2022/01/09 04:09:19;;;;;;;;;2.75;2.50;;;;;5.80;86.89;99235.72;5057964;28;11688;-69
2022/01/09 04:11:49;;;;;;;;;1.50;1.00;;;;;5.76;87.11;99242.53;5062391;28;10622;-69
2022/01/09 04:14:16;;;;;;;;;0.75;0.75;;;;;5.78;87.05;99248.53;5061204;28;10731;-69
2022/01/09 04:16:42;;;;;;;;;0.75;0.75;;;;;5.80;87.22;99242.97;5061516;28;10742;-72
2022/01/09 04:19:12;;;;;;;;;1.00;0.00;;;;;5.82;88.21;99248.97;5060034;28;10744;-70
2022/01/09 04:21:41;;;;;;;;;0.00;0.00;;;;;5.77;87.99;99251.41;5060047;28;10652;-70
2022/01/09 04:24:09;;;;;;;;;1.50;1.00;;;;;5.74;88.80;99255.31;5043240;28;10604;-69
2022/01/09 04:26:36;;;;;;;;;0.00;0.00;;;;;5.76;89.34;99263.19;5058713;28;10671;-69
2022/01/09 04:29:04;;;;;;;;;4.00;2.00;;;;;5.72;88.91;99273.50;5064877;28;10675;-68
2022/01/09 04:31:30;;;;;;;;;1.00;1.00;;;;;5.69;89.49;99279.22;5065653;28;11277;-68
2022/01/09 04:33:57;;;;;;;;;2.00;2.00;;;;;5.69;89.93;99278.41;5057888;28;10780;-71
2022/01/09 04:36:24;;;;;;;;;1.50;1.00;;;;;5.70;89.70;99280.91;5062392;28;10618;-69
2022/01/09 04:38:51;;;;;;;;;4.75;2.00;;;;;5.68;89.75;99288.31;5061854;28;11509;-68
2022/01/09 04:41:18;;;;;;;;;2.25;2.25;;;;;5.69;89.42;99281.06;5060044;28;10668;-70
2022/01/09 04:43:45;;;;;;;;;1.75;1.00;;;;;5.70;88.69;99290.78;5080667;28;10748;-69
2022/01/09 04:46:19;;;;;;;;;1.25;0.25;;;;;5.68;88.71;99299.03;5062780;28;10634;-69
2022/01/09 04:48:46;;;;;;;;;1.00;1.00;;;;;5.71;89.02;99300.53;5076541;28;10569;-69
2022/01/09 04:51:15;;;;;;;;;0.75;0.75;;;;;5.69;87.79;99318.66;5059789;28;11361;-69
2022/01/09 04:53:41;;;;;;;;;0.25;0.25;;;;;5.71;88.10;99325.53;5057816;28;10895;-68
2022/01/09 04:56:07;;;;;;;;;1.00;1.00;;;;;5.72;88.32;99321.00;5058888;28;10736;-69
2022/01/09 04:58:34;;;;;;;;;2.00;2.00;;;;;5.71;87.63;99330.06;5060630;28;10643;-71
2022/01/09 05:01:00;;;;;;;;;2.25;2.00;;;;;5.68;86.69;99336.63;5061247;28;10799;-69
2022/01/09 05:03:28;;;;;;;;;3.50;1.25;;;;;5.72;86.79;99337.94;5065292;28;10845;-69
2022/01/09 05:05:55;;;;;;;;;3.00;0.50;;;;;5.71;86.62;99340.81;5060545;28;10873;-71
2022/01/09 05:08:21;;;;;;;;;3.50;1.50;;;;;5.72;86.47;99351.34;5074269;28;10778;-70
2022/01/09 05:10:48;;;;;;;;;2.00;1.00;;;;;5.71;85.94;99354.22;5056973;28;10698;-68
2022/01/09 05:13:14;;;;;;;;;2.00;1.00;;;;;5.75;85.45;99352.81;5058864;28;10737;-71
2022/01/09 05:15:41;;;;;;;;;4.00;1.00;;;;;5.74;85.23;99359.22;5061691;28;10614;-70
2022/01/09 05:18:13;;;;;;;;;1.75;1.00;;;;;5.77;85.35;99353.44;5071399;28;10733;-69
2022/01/09 05:20:41;;;;;;;;;1.50;1.50;;;;;5.77;86.05;99362.34;5073659;28;10579;-68
2022/01/09 05:23:08;;;;;;;;;1.00;1.00;;;;;5.77;86.68;99377.63;5058903;28;10738;-70
2022/01/09 05:25:34;;;;;;;;;3.00;2.00;;;;;5.75;87.18;99377.81;5058690;28;10655;-68
2022/01/09 05:28:01;;;;;;;;;4.00;2.50;;;;;5.70;86.80;99382.94;5060517;28;10830;-71
2022/01/09 05:30:27;;;;;;;;;1.50;0.75;;;;;5.74;87.31;99394.94;5059375;28;11425;-69
2022/01/09 05:32:53;;;;;;;;;0.00;0.00;;;;;5.71;87.69;99405.25;5059332;28;10785;-69
2022/01/09 05:35:20;;;;;;;;;2.00;1.75;;;;;5.68;87.36;99400.22;5060219;28;10659;-69
2022/01/09 05:37:47;;;;;;;;;2.25;2.25;;;;;5.72;86.88;99405.06;5064350;28;10810;-69
2022/01/09 05:40:13;;;;;;;;;2.25;0.75;;;;;5.70;87.06;99411.63;5057539;28;10715;-71
2022/01/09 05:42:40;;;;;;;;;2.00;1.75;;;;;5.69;86.45;99420.69;5059629;28;10802;-68
2022/01/09 05:45:08;;;;;;;;;2.00;2.00;;;;;5.69;86.97;99426.06;5061623;28;10721;-69
2022/01/09 05:47:34;;;;;;;;;3.50;1.75;;;;;5.69;87.25;99426.91;5054321;28;10747;-70
2022/01/09 05:50:01;;;;;;;;;4.00;1.00;;;;;5.70;87.52;99422.34;5058286;28;10665;-68
2022/01/09 05:52:28;;;;;;;;;3.50;2.00;;;;;5.72;87.61;99433.75;5057594;28;10701;-68
2022/01/09 05:54:54;;;;;;;;;1.00;1.00;;;;;5.66;88.14;99438.03;5070199;28;11630;-68
2022/01/09 05:57:21;;;;;;;;;1.00;1.00;;;;;5.60;88.08;99433.44;5070289;28;11274;-68
2022/01/09 05:59:47;;;;;;;;;1.00;1.00;;;;;5.59;88.00;99439.00;5057950;28;10697;-70
2022/01/09 06:02:14;;;;;;;;;0.75;0.75;;;;;5.53;87.46;99437.91;5058114;28;10728;-72
2022/01/09 06:04:40;;;;;;;;;2.00;0.75;;;;;5.52;87.36;99438.94;5072846;28;10730;-69
2022/01/09 06:07:07;;;;;;;;;1.00;1.00;;;;;5.50;87.44;99438.28;5058996;28;10697;-69
2022/01/09 06:09:34;;;;;;;;;0.75;0.50;;;;;5.50;87.90;99446.34;5056958;28;10782;-74
2022/01/09 06:12:00;;;;;;;;;1.00;1.00;;;;;5.57;88.24;99455.28;5057268;28;11722;-69
2022/01/09 06:14:27;;;;;;;;;2.00;2.00;;;;;5.59;88.11;99457.78;5058833;28;11796;-71
2022/01/09 06:16:53;;;;;;;;;4.00;0.75;;;;;5.50;88.53;99460.59;5054689;28;10859;-70
2022/01/09 06:19:20;;;;;;;;;0.75;0.75;;;;;5.44;89.07;99457.81;5057061;28;10738;-69
2022/01/09 06:21:46;;;;;;;;;4.25;2.00;;;;;5.37;88.53;99468.47;5056642;28;10916;-71
2022/01/09 06:24:13;;;;;;;;;0.00;0.00;;;;;5.33;88.72;99480.63;5054493;28;10751;-69
2022/01/09 06:26:39;;;;;;;;;4.00;2.00;;;;;5.29;87.30;99479.34;5056093;28;10734;-68
2022/01/09 06:29:06;;;;;;;;;0.50;0.50;;;;;5.28;87.18;99492.94;5057482;28;10720;-69
2022/01/09 06:31:32;;;;;;;;;2.00;0.75;;;;;5.22;87.51;99491.84;5059860;28;10893;-69
2022/01/09 06:33:58;;;;;;;;;1.00;1.00;;;;;5.11;88.59;99498.50;5058020;28;11670;-72
2022/01/09 06:36:25;;;;;;;;;2.25;0.50;;;;;5.05;89.04;99504.63;5057988;28;11563;-70
2022/01/09 06:38:51;;;;;;;;;1.25;1.25;;;;;5.06;89.60;99498.25;5058429;28;10888;-69
2022/01/09 06:41:18;;;;;;;;;1.25;0.50;;;;;5.08;89.70;99506.09;5056785;28;10897;-69
2022/01/09 06:43:44;;;;;;;;;0.00;0.00;;;;;5.05;88.92;99514.53;5058276;28;11052;-72
2022/01/09 06:46:11;;;;;;;;;0.00;0.00;;;;;5.01;88.83;99516.75;5057707;28;10723;-72
2022/01/09 06:48:38;;;;;;;;;1.00;1.00;;;;;4.89;88.44;99521.72;5055763;28;10920;-71
2022/01/09 06:51:04;;;;;;;;;2.00;0.00;;;;;4.91;88.61;99527.75;5056673;28;10994;-73
2022/01/09 06:53:30;;;;;;;;;0.00;0.00;;;;;4.81;87.83;99526.38;5057909;28;11328;-69
2022/01/09 06:55:57;;;;;;;;;1.00;1.00;;;;;4.75;87.36;99527.09;5058570;28;10836;-69
2022/01/09 06:58:23;;;;;;;;;1.75;0.00;;;;;4.76;88.12;99532.28;5056413;28;11862;-70
2022/01/09 07:00:51;;;;;;;;;1.00;0.75;;;;;4.74;88.03;99533.50;5055162;28;10963;-69
2022/01/09 07:03:17;;;;;;;;;0.25;0.25;;;;;4.74;87.73;99538.84;5041787;28;10907;-70
2022/01/09 07:05:44;;;;;;;;;0.50;0.25;;;;;4.81;88.61;99540.59;5060863;28;11693;-70
2022/01/09 07:08:11;;;;;;;;;0.00;0.00;;;;;4.86;88.94;99543.56;5056115;28;10870;-72
2022/01/09 07:10:37;;;;;;;;;0.00;0.00;;;;;4.89;89.15;99556.59;5049842;28;10918;-69
2022/01/09 07:13:04;;;;;;;;;0.25;0.25;;;;;4.91;89.88;99554.56;5057687;28;11008;-69
2022/01/09 07:15:30;;;;;;;;;1.00;1.00;;;;;4.90;89.91;99562.78;5057819;28;11704;-74
2022/01/09 07:17:57;;;;;;;;;2.00;0.00;;;;;4.84;90.70;99563.53;5055794;28;10970;-70
2022/01/09 07:20:23;;;;;;;;;1.50;0.25;;;;;4.89;90.69;99561.13;5070615;28;11820;-69
2022/01/09 07:22:50;;;;;;;;;2.25;1.25;;;;;4.86;90.38;99564.19;5055923;28;10896;-73
2022/01/09 07:25:16;;;;;;;;;1.00;1.00;;;;;4.91;90.47;99572.50;5059515;28;10991;-70
2022/01/09 07:27:43;;;;;;;;;0.50;0.50;;;;;4.92;90.17;99569.63;5059454;28;11167;-68
2022/01/09 07:30:10;;;;;;;;;1.00;1.00;;;;;4.91;89.53;99577.84;5061550;28;10886;-74
2022/01/09 07:32:37;;;;;;;;;0.75;0.50;;;;;4.90;89.79;99578.88;5060347;28;11189;-70
2022/01/09 07:35:04;;;;;;;;;1.00;1.00;;;;;4.86;89.68;99578.41;5058685;28;10976;-69
2022/01/09 07:37:31;;;;;;;;;1.25;1.00;;;;;4.82;89.77;99584.34;5060388;28;10930;-69
2022/01/09 07:39:59;;;;;;;;;0.75;0.75;;;;;4.84;90.43;99593.84;5062303;28;11023;-69
2022/01/09 07:42:26;;;;;;;;;2.00;2.00;;;;;4.85;90.86;99606.25;5071193;28;11140;-72
2022/01/09 07:44:52;;;;;;;;;0.00;0.00;;;;;4.83;90.77;99607.44;5057036;28;11105;-68
2022/01/09 07:47:19;;;;;;;;;0.75;0.75;;;;;4.84;91.40;99604.59;5059059;28;11226;-74
2022/01/09 07:49:45;;;;;;;;;1.25;0.25;;;;;4.85;91.58;99616.97;5058833;28;11075;-71
2022/01/09 07:52:11;;;;;;;;;0.50;0.50;;;;;4.84;91.43;99618.00;5060105;28;11063;-72
2022/01/09 07:54:38;;;;;;;;;2.00;2.00;;;;;4.87;91.66;99624.84;5058142;28;11637;-69
2022/01/09 07:57:05;;;;;;;;;4.00;2.00;;;;;4.86;91.23;99631.22;5056180;28;11066;-74
2022/01/09 07:59:31;;;;;;;;;2.00;1.75;;;;;4.88;90.91;99634.53;5061261;28;11281;-69
2022/01/09 08:01:58;;;;;;;;;1.50;1.25;;;;;4.83;90.68;99639.63;5058087;28;11061;-68
2022/01/09 08:04:24;;;;;;;;;2.00;2.00;;;;;4.83;90.26;99637.78;5061435;28;11028;-68
2022/01/09 08:06:51;;;;;;;;;1.00;1.00;;;;;4.85;89.66;99643.78;5059525;28;10910;-70
2022/01/09 08:09:17;;;;;;;;;1.00;1.00;;;;;4.85;89.26;99653.69;5059261;28;10861;-73
2022/01/09 08:11:44;;;;;;;;;0.25;0.25;;;;;4.86;89.51;99641.94;5061334;28;10880;-70
2022/01/09 08:14:10;;;;;;;;;1.00;1.00;;;;;4.79;88.37;99644.53;5064736;28;10948;-69
2022/01/09 08:16:37;;;;;;;;;1.00;1.00;;;;;4.80;88.24;99654.22;5061317;28;10932;-68
2022/01/09 08:19:03;;;;;;;;;1.00;0.00;;;;;4.81;88.83;99660.44;5060852;28;10959;-69
2022/01/09 08:21:30;;;;;;;;;0.00;0.00;;;;;4.76;88.89;99660.97;5060812;28;11021;-69
2022/01/09 08:23:56;;;;;;;;;1.50;1.50;;;;;4.79;89.81;99665.97;5059680;28;10781;-70
2022/01/09 08:26:23;;;;;;;;;0.75;0.75;;;;;4.86;90.56;99669.59;5057036;28;10864;-70
2022/01/09 08:28:50;;;;;;;;;0.75;0.75;;;;;4.85;90.59;99672.44;5060481;28;10940;-69
2022/01/09 08:31:17;;;;;;;;;3.50;1.00;;;;;4.89;91.62;99679.13;5058132;28;11684;-73
2022/01/09 08:33:45;;;;;;;;;0.50;0.50;;;;;4.97;92.19;99671.00;5060216;28;11079;-68
2022/01/09 08:36:12;;;;;;;;;2.25;2.25;;;;;4.98;92.62;99667.31;5070063;28;10840;-68
2022/01/09 08:38:40;;;;;;;;;2.50;2.50;;;;;4.97;92.80;99671.00;5063080;28;10915;-71
2022/01/09 08:41:06;;;;;;;;;4.00;1.75;;;;;4.98;93.48;99691.47;5062387;28;10823;-70
2022/01/09 08:43:35;;;;;;;;;1.00;1.00;;;;;4.97;93.60;99692.47;5061607;28;10931;-69
2022/01/09 08:46:02;;;;;;;;;1.00;1.00;;;;;4.99;93.75;99690.44;5063485;28;10862;-68
2022/01/09 08:48:29;;;;;;;;;0.00;0.00;;;;;5.09;93.79;99684.81;5057447;28;11077;-69
2022/01/09 08:50:55;;;;;;;;;2.50;1.00;;;;;5.09;93.06;99696.38;5057047;28;10967;-68
2022/01/09 08:53:22;;;;;;;;;1.75;0.00;;;;;5.11;93.36;99699.69;5061261;28;10935;-68
2022/01/09 08:55:48;;;;;;;;;1.00;0.00;;;;;5.11;93.20;99717.66;5064651;28;10893;-69
2022/01/09 08:58:14;;;;;;;;;2.00;2.00;;;;;5.24;93.60;99717.88;5076996;28;11745;-69
2022/01/09 09:00:41;;;;;;;;;1.00;1.00;;;;;5.21;92.85;99716.38;5075213;28;11860;-70
2022/01/09 09:03:08;;;;;;;;;3.50;1.75;;;;;5.32;92.59;99708.91;5077203;28;11170;-69
2022/01/09 09:05:34;;;;;;;;;0.25;0.25;;;;;5.34;92.14;99721.13;5077165;28;10839;-69
2022/01/09 09:08:03;;;;;;;;;2.00;1.00;;;;;5.40;91.47;99722.22;5081075;28;10857;-71
2022/01/09 09:10:29;;;;;;;;;0.00;0.00;;;;;5.49;91.33;99731.88;5077177;28;11161;-71
2022/01/09 09:12:56;;;;;;;;;1.00;1.00;;;;;5.50;90.69;99736.22;5071021;28;11384;-69
2022/01/09 09:15:22;;;;;;;;;4.00;3.00;;;;;5.54;90.79;99742.91;5075650;28;10914;-69
2022/01/09 09:17:52;;;;;;;;;1.50;0.25;;;;;5.49;90.23;99740.78;5078705;28;10799;-68
2022/01/09 09:20:19;;;;;;;;;1.00;1.00;;;;;5.52;89.91;99739.56;5074466;28;10954;-69
2022/01/09 09:22:46;;;;;;;;;5.00;1.75;;;;;5.60;89.73;99744.84;5075331;28;11592;-69
2022/01/09 09:25:13;;;;;;;;;1.75;0.25;;;;;5.57;89.67;99742.53;5075621;28;10965;-69
2022/01/09 09:27:40;;;;;;;;;1.25;1.00;;;;;5.52;89.88;99747.63;5076338;28;10662;-68
2022/01/09 09:30:08;;;;;;;;;1.50;1.50;;;;;5.45;89.96;99750.22;5074942;28;10849;-70
2022/01/09 09:32:34;;;;;;;;;0.00;0.00;;;;;5.40;90.30;99755.28;5075772;28;11593;-70
2022/01/09 09:35:02;;;;;;;;;1.25;1.00;;;;;5.42;90.71;99755.91;5074366;28;10829;-69
2022/01/09 09:37:29;;;;;;;;;2.00;2.00;;;;;5.34;90.65;99763.22;5071051;28;11441;-70
2022/01/09 09:39:57;;;;;;;;;3.00;1.00;;;;;5.38;91.02;99768.03;5074685;28;10786;-69
2022/01/09 09:42:23;;;;;;;;;3.50;1.75;;;;;6.36;95.34;99769.66;5060097;28;10824;-71
2022/01/09 09:44:50;;;;;;;;;1.00;1.00;;;;;6.10;88.89;99787.13;5056955;28;10628;-70
2022/01/09 09:47:18;;;;;;;;;1.25;1.25;;;;;5.82;88.69;99789.59;5055615;28;10749;-69
2022/01/09 09:49:47;;;;;;;;;2.50;1.75;;;;;5.72;89.27;99794.41;5076921;28;10836;-69
2022/01/09 09:52:18;;;;;;;;;2.75;1.00;;;;;5.57;89.97;99786.31;5075447;28;10851;-68
2022/01/09 09:54:50;;;;;;;;;0.75;0.75;;;;;5.45;90.56;99790.47;5075320;28;11326;-70
2022/01/09 09:57:17;;;;;;;;;0.00;0.00;;;;;5.35;90.67;99797.09;5074792;28;10680;-71
2022/01/09 09:59:43;;;;;;;;;2.00;2.00;;;;;5.37;91.34;99797.75;5072362;28;10832;-69
2022/01/09 10:02:13;;;;;;;;;1.00;0.00;;;;;5.39;91.57;99803.75;5066493;28;10651;-69
2022/01/09 10:04:59;;;;;;;;;2.00;0.50;;;;;5.39;92.12;99809.97;5061864;28;10832;-70
2022/01/09 10:07:27;;;;;;;;;0.00;0.00;;;;;5.52;92.29;99804.00;5074094;28;11934;-72
2022/01/09 10:09:56;;;;;;;;;1.00;1.00;;;;;5.86;91.70;99806.16;5059777;28;11422;-69
2022/01/09 10:12:25;;;;;;;;;2.00;1.00;;;;;6.26;91.03;99812.13;5059994;28;10711;-69
2022/01/09 10:14:54;;;;;;;;;2.50;1.75;;;;;6.58;90.04;99813.56;5056764;28;10773;-70
2022/01/09 10:17:22;;;;;;;;;2.75;2.75;;;;;6.78;89.49;99803.88;5057906;28;10681;-69
2022/01/09 10:19:56;;;;;;;;;2.25;1.50;;;;;6.75;87.91;99813.16;5059250;28;10581;-69
2022/01/09 10:22:36;;;;;;;;;1.75;0.25;;;;;6.62;88.67;99809.47;5060338;28;10585;-70
2022/01/09 10:25:32;;;;;;;;;1.00;1.00;;;;;6.47;88.01;99812.22;5055197;28;10563;-70
2022/01/09 10:28:07;;;;;;;;;2.75;2.00;;;;;6.46;87.47;99818.63;5077551;28;10574;-69
2022/01/09 10:30:41;;;;;;;;;3.25;1.50;;;;;6.57;86.95;99810.06;5059989;28;10547;-69
2022/01/09 10:33:12;;;;;;;;;5.50;5.00;;;;;6.78;86.31;99814.66;5061670;28;10488;-70
2022/01/09 10:35:41;;;;;;;;;2.00;1.00;;;;;6.68;84.97;99827.53;5060984;28;10612;-70
2022/01/09 10:38:09;;;;;;;;;1.75;1.00;;;;;6.54;84.49;99826.56;5056089;28;10550;-69
2022/01/09 10:40:37;;;;;;;;;2.25;1.00;;;;;6.48;85.21;99824.63;5060621;28;10583;-69
2022/01/09 10:43:07;;;;;;;;;3.25;1.00;;;;;6.35;84.31;99832.50;5062799;28;10588;-69
2022/01/09 10:45:38;;;;;;;;;2.00;2.00;;;;;6.34;84.35;99842.44;5073176;28;10523;-69
2022/01/09 10:48:08;;;;;;;;;1.00;1.00;;;;;6.46;83.57;99832.06;5048428;28;10679;-72
2022/01/09 10:50:38;;;;;;;;;1.25;1.00;;;;;6.58;83.12;99830.53;5071399;28;11232;-69
2022/01/09 10:53:17;;;;;;;;;1.25;0.50;;;;;6.64;82.13;99842.41;5074323;28;10467;-72
2022/01/09 10:55:46;;;;;;;;;1.00;1.00;;;;;6.59;82.66;99845.66;5068413;28;10413;-69
2022/01/09 10:58:22;;;;;;;;;1.00;1.00;;;;;6.62;83.44;99853.34;5070443;28;10445;-69
2022/01/09 11:01:05;;;;;;;;;2.00;2.00;;;;;6.42;81.82;99858.44;5061340;28;10756;-70
2022/01/09 11:03:32;;;;;;;;;1.50;1.00;;;;;6.56;82.83;99862.16;5061704;28;10412;-69
2022/01/09 11:06:01;;;;;;;;;3.00;1.75;;;;;6.80;82.65;99869.09;5078205;28;10495;-71
2022/01/09 11:08:31;;;;;;;;;1.75;1.75;;;;;6.95;82.54;99867.22;5078493;28;10489;-69
2022/01/09 11:10:58;;;;;;;;;2.75;2.25;;;;;6.99;80.71;99868.50;5076324;28;10492;-69
2022/01/09 11:13:26;;;;;;;;;0.50;0.50;;;;;7.13;80.23;99869.47;5060637;28;10554;-71
2022/01/09 11:18:41;;;;;;;;;1.50;0.75;;;;;6.78;83.69;99890.78;5062156;28;10367;-72
2022/01/09 11:21:09;;;;;;;;;1.00;0.00;;;;;6.29;83.43;99905.84;5060034;28;10452;-69
2022/01/09 11:24:02;;;;;;;;;0.00;0.00;;;;;6.03;85.08;99899.03;5060435;28;10350;-71
2022/01/09 11:27:12;;;;;;;;;0.00;0.00;;;;;5.93;86.43;99901.13;5081698;28;10445;-70
2022/01/09 11:29:49;;;;;;;;;0.00;0.00;;;;;5.84;87.35;99918.31;5058820;28;11135;-69
2022/01/09 11:32:22;;;;;;;;;0.00;0.00;;;;;5.74;88.66;99913.22;5063988;28;10554;-69
2022/01/09 11:35:16;;;;;;;;;0.00;0.00;;;;;5.73;89.73;99921.44;5060733;28;11016;-71
2022/01/09 11:37:48;;;;;;;;;0.00;0.00;;;;;5.54;90.05;99922.75;5076755;28;10448;-71
2022/01/09 11:40:22;;;;;;;;;0.75;0.00;;;;;5.43;89.81;99925.84;5057919;28;10654;-69
2022/01/09 11:43:03;;;;;;;;;1.00;0.25;;;;;5.30;90.29;99931.81;5061144;28;10408;-70
2022/01/09 11:45:43;;;;;;;;;0.00;0.00;;;;;5.27;89.39;99934.84;5063254;28;10507;-70
2022/01/09 11:48:11;;;;;;;;;2.00;0.00;;;;;5.31;89.81;99940.69;5044030;28;10488;-71
2022/01/09 11:51:05;;;;;;;;;1.00;1.00;;;;;5.31;89.90;99946.06;5061760;28;10603;-69